Time,TemperatureF,DewpointF,PressureIn,WindDirection,WindDirectionDegrees,WindSpeedMPH,WindSpeedGustMPH,Humidity,HourlyPrecipIn,Conditions,Clouds,dailyrainin,SolarRadiationWatts/m^2,SoftwareType,DateUTC
2013-03-13 00:02:00,62.0,42.0,-100.00,NNE,13,2.0,3.0,48,0.00,,,0.00,0.000000,,2013-03-13 07:02:00,
2013-03-13 00:33:00,62.0,42.0,-100.00,NNE,13,2.0,3.0,48,0.00,,,0.00,0.000000,,2013-03-13 07:33:00,
2013-03-13 00:43:00,62.0,42.0,-100.00,NNE,13,2.0,3.0,48,0.00,,,0.00,0.000000,,2013-03-13 07:43:00,
2013-03-13 00:52:00,62.0,42.0,-100.00,NNE,13,2.0,3.0,48,0.00,,,0.00,0.000000,,2013-03-13 07:52:00,
2013-03-13 01:02:00,60.0,41.0,-100.00,NE,44,3.0,4.0,50,0.00,,,0.00,0.000000,,2013-03-13 08:02:00,
2013-03-13 01:33:00,60.0,41.0,-100.00,NE,44,3.0,4.0,50,0.00,,,0.00,0.000000,,2013-03-13 08:33:00,
2013-03-13 01:43:00,60.0,41.0,-100.00,NE,44,3.0,4.0,50,0.00,,,0.00,0.000000,,2013-03-13 08:43:00,
2013-03-13 01:53:00,60.0,41.0,-100.00,NE,44,3.0,4.0,50,0.00,,,0.00,0.000000,,2013-03-13 08:53:00,
2013-03-13 02:32:00,59.0,42.0,-100.00,ENE,72,2.0,4.0,54,0.00,,,0.00,0.000000,,2013-03-13 09:32:00,
2013-03-13 02:42:00,59.0,42.0,-100.00,ENE,72,2.0,4.0,54,0.00,,,0.00,0.000000,,2013-03-13 09:42:00,
2013-03-13 02:52:00,59.0,42.0,-100.00,ENE,72,2.0,4.0,54,0.00,,,0.00,0.000000,,2013-03-13 09:52:00,
2013-03-13 03:01:00,59.0,42.0,-100.00,ENE,72,2.0,4.0,54,0.00,,,0.00,0.000000,,2013-03-13 10:01:00,
2013-03-13 03:32:00,57.0,43.0,-100.00,East,95,0.0,2.0,60,0.00,,,0.00,0.000000,,2013-03-13 10:32:00,
2013-03-13 03:42:00,57.0,43.0,-100.00,East,95,0.0,2.0,60,0.00,,,0.00,0.000000,,2013-03-13 10:42:00,
2013-03-13 03:52:00,57.0,43.0,-100.00,East,95,0.0,2.0,60,0.00,,,0.00,0.000000,,2013-03-13 10:52:00,
2013-03-13 04:01:00,57.0,43.0,-100.00,East,95,0.0,2.0,60,0.00,,,0.00,0.000000,,2013-03-13 11:01:00,
2013-03-13 04:02:00,59.0,43.0,-100.00,ENE,66,2.0,3.0,56,0.00,,,0.00,0.000000,,2013-03-13 11:02:00,
2013-03-13 04:32:00,59.0,43.0,-100.00,ENE,66,2.0,3.0,56,0.00,,,0.00,0.000000,,2013-03-13 11:32:00,
2013-03-13 04:42:00,59.0,43.0,-100.00,ENE,66,2.0,3.0,56,0.00,,,0.00,0.000000,,2013-03-13 11:42:00,
2013-03-13 04:52:00,59.0,43.0,-100.00,ENE,66,2.0,3.0,56,0.00,,,0.00,0.000000,,2013-03-13 11:52:00,
2013-03-13 05:02:00,58.0,43.0,-100.00,ENE,63,4.0,5.0,58,0.00,,,0.00,0.000000,,2013-03-13 12:02:00,
2013-03-13 05:32:00,58.0,43.0,-100.00,ENE,63,4.0,5.0,58,0.00,,,0.00,0.000000,,2013-03-13 12:32:00,
2013-03-13 05:42:00,58.0,43.0,-100.00,ENE,63,4.0,5.0,58,0.00,,,0.00,0.000000,,2013-03-13 12:42:00,
2013-03-13 05:53:00,58.0,43.0,-100.00,ENE,63,4.0,5.0,58,0.00,,,0.00,0.000000,,2013-03-13 12:53:00,
2013-03-13 06:02:00,58.0,44.0,-100.00,ENE,68,6.0,7.0,59,0.00,,,0.00,0.000000,,2013-03-13 13:02:00,
2013-03-13 06:22:00,58.0,44.0,-100.00,ENE,68,6.0,7.0,59,0.00,,,0.00,0.000000,,2013-03-13 13:22:00,
2013-03-13 06:33:00,58.0,44.0,-100.00,ENE,68,6.0,7.0,59,0.00,,,0.00,0.000000,,2013-03-13 13:33:00,
2013-03-13 06:43:00,58.0,44.0,-100.00,ENE,68,6.0,7.0,59,0.00,,,0.00,0.000000,,2013-03-13 13:43:00,
2013-03-13 06:52:00,58.0,44.0,-100.00,ENE,68,6.0,7.0,59,0.00,,,0.00,0.000000,,2013-03-13 13:52:00,
2013-03-13 07:02:00,57.0,45.0,-100.00,ENE,59,7.0,8.0,63,0.00,,,0.00,0.000000,,2013-03-13 14:02:00,
2013-03-13 07:22:00,57.0,45.0,-100.00,ENE,59,7.0,8.0,63,0.00,,,0.00,0.000000,,2013-03-13 14:22:00,
2013-03-13 07:34:00,57.0,45.0,-100.00,ENE,59,7.0,8.0,63,0.00,,,0.00,0.000000,,2013-03-13 14:34:00,
2013-03-13 07:42:00,57.0,45.0,-100.00,ENE,59,7.0,8.0,63,0.00,,,0.00,0.000000,,2013-03-13 14:42:00,
2013-03-13 07:52:00,57.0,45.0,-100.00,ENE,59,7.0,8.0,63,0.00,,,0.00,0.000000,,2013-03-13 14:52:00,
2013-03-13 08:02:00,58.0,45.0,-100.00,ENE,71,7.0,8.0,62,0.00,,,0.00,23.000000,,2013-03-13 15:02:00,
2013-03-13 08:22:00,58.0,45.0,-100.00,ENE,71,7.0,8.0,62,0.00,,,0.00,23.000000,,2013-03-13 15:22:00,
2013-03-13 08:32:00,58.0,45.0,-100.00,ENE,71,7.0,8.0,62,0.00,,,0.00,23.000000,,2013-03-13 15:32:00,
2013-03-13 08:43:00,58.0,45.0,-100.00,ENE,71,7.0,8.0,62,0.00,,,0.00,23.000000,,2013-03-13 15:43:00,
2013-03-13 08:52:00,58.0,45.0,-100.00,ENE,71,7.0,8.0,62,0.00,,,0.00,23.000000,,2013-03-13 15:52:00,
2013-03-13 09:02:00,61.0,47.0,-100.00,East,85,7.0,9.0,59,0.00,,,0.00,185.000000,,2013-03-13 16:02:00,
2013-03-13 09:32:00,61.0,47.0,-100.00,East,85,7.0,9.0,59,0.00,,,0.00,185.000000,,2013-03-13 16:32:00,
2013-03-13 09:42:00,61.0,47.0,-100.00,East,85,7.0,9.0,59,0.00,,,0.00,185.000000,,2013-03-13 16:42:00,
2013-03-13 09:52:00,61.0,47.0,-100.00,East,85,7.0,9.0,59,0.00,,,0.00,185.000000,,2013-03-13 16:52:00,
2013-03-13 10:02:00,64.0,47.0,-100.00,East,91,8.0,10.0,53,0.00,,,0.00,384.000000,,2013-03-13 17:02:00,
2013-03-13 10:33:00,64.0,47.0,-100.00,East,91,8.0,10.0,53,0.00,,,0.00,384.000000,,2013-03-13 17:33:00,
2013-03-13 10:42:00,64.0,47.0,-100.00,East,91,8.0,10.0,53,0.00,,,0.00,384.000000,,2013-03-13 17:42:00,
2013-03-13 10:53:00,64.0,47.0,-100.00,East,91,8.0,10.0,53,0.00,,,0.00,384.000000,,2013-03-13 17:53:00,
2013-03-13 11:02:00,65.0,47.0,-100.00,East,79,9.0,13.0,52,0.00,,,0.00,566.000000,,2013-03-13 18:02:00,
2013-03-13 11:33:00,65.0,47.0,-100.00,East,79,9.0,13.0,52,0.00,,,0.00,566.000000,,2013-03-13 18:33:00,
2013-03-13 11:42:00,65.0,47.0,-100.00,East,79,9.0,13.0,52,0.00,,,0.00,566.000000,,2013-03-13 18:42:00,
2013-03-13 11:52:00,65.0,47.0,-100.00,East,79,9.0,13.0,52,0.00,,,0.00,566.000000,,2013-03-13 18:52:00,
2013-03-13 12:02:00,66.0,47.0,-100.00,East,79,8.0,13.0,51,0.00,,,0.00,723.000000,,2013-03-13 19:02:00,
2013-03-13 12:32:00,66.0,47.0,-100.00,East,79,8.0,13.0,51,0.00,,,0.00,723.000000,,2013-03-13 19:32:00,
2013-03-13 12:43:00,66.0,47.0,-100.00,East,79,8.0,13.0,51,0.00,,,0.00,723.000000,,2013-03-13 19:43:00,
2013-03-13 12:53:00,66.0,47.0,-100.00,East,79,8.0,13.0,51,0.00,,,0.00,723.000000,,2013-03-13 19:53:00,
2013-03-13 13:32:00,66.0,47.0,-100.00,East,88,6.0,13.0,50,0.00,,,0.00,797.000000,,2013-03-13 20:32:00,
2013-03-13 13:42:00,66.0,47.0,-100.00,East,88,6.0,13.0,50,0.00,,,0.00,797.000000,,2013-03-13 20:42:00,
2013-03-13 13:52:00,66.0,47.0,-100.00,East,88,6.0,13.0,50,0.00,,,0.00,797.000000,,2013-03-13 20:52:00,
2013-03-13 14:01:00,66.0,47.0,-100.00,East,88,6.0,13.0,50,0.00,,,0.00,797.000000,,2013-03-13 21:01:00,
2013-03-13 14:22:00,66.0,49.0,-100.00,ENE,74,6.0,12.0,54,0.00,,,0.00,764.000000,,2013-03-13 21:22:00,
2013-03-13 14:34:00,66.0,49.0,-100.00,ENE,74,6.0,12.0,54,0.00,,,0.00,764.000000,,2013-03-13 21:34:00,
2013-03-13 14:42:00,66.0,49.0,-100.00,ENE,74,6.0,12.0,54,0.00,,,0.00,764.000000,,2013-03-13 21:42:00,
2013-03-13 14:52:00,66.0,49.0,-100.00,ENE,74,6.0,12.0,54,0.00,,,0.00,764.000000,,2013-03-13 21:52:00,
2013-03-13 15:01:00,66.0,49.0,-100.00,ENE,74,6.0,12.0,54,0.00,,,0.00,764.000000,,2013-03-13 22:01:00,
2013-03-13 15:32:00,67.0,51.0,-100.00,NE,54,7.0,11.0,57,0.00,,,0.00,648.000000,,2013-03-13 22:32:00,
2013-03-13 15:42:00,67.0,51.0,-100.00,NE,54,7.0,11.0,57,0.00,,,0.00,648.000000,,2013-03-13 22:42:00,
2013-03-13 15:52:00,67.0,51.0,-100.00,NE,54,7.0,11.0,57,0.00,,,0.00,648.000000,,2013-03-13 22:52:00,
2013-03-13 16:01:00,67.0,51.0,-100.00,NE,54,7.0,11.0,57,0.00,,,0.00,648.000000,,2013-03-13 23:01:00,
2013-03-13 16:02:00,68.0,51.0,-100.00,NE,50,7.0,13.0,54,0.00,,,-99.99,616.000000,,2013-03-13 23:02:00,
2013-03-13 16:32:00,68.0,51.0,-100.00,NE,50,7.0,13.0,54,0.00,,,-99.99,616.000000,,2013-03-13 23:32:00,
2013-03-13 16:43:00,68.0,51.0,-100.00,NE,50,7.0,13.0,54,0.00,,,-99.99,616.000000,,2013-03-13 23:43:00,
2013-03-13 16:52:00,68.0,51.0,-100.00,NE,50,7.0,13.0,54,0.00,,,-99.99,616.000000,,2013-03-13 23:52:00,
2013-03-13 17:02:00,68.0,50.0,-100.00,ENE,59,6.0,10.0,53,0.00,,,0.00,506.000000,,2013-03-14 00:02:00,
2013-03-13 17:32:00,68.0,50.0,-100.00,ENE,59,6.0,10.0,53,0.00,,,0.00,506.000000,,2013-03-14 00:32:00,
2013-03-13 17:42:00,68.0,50.0,-100.00,ENE,59,6.0,10.0,53,0.00,,,0.00,506.000000,,2013-03-14 00:42:00,
2013-03-13 17:52:00,68.0,50.0,-100.00,ENE,59,6.0,10.0,53,0.00,,,0.00,506.000000,,2013-03-14 00:52:00,
2013-03-13 18:02:00,66.0,49.0,-100.00,NE,44,5.0,8.0,54,0.00,,,0.00,309.000000,,2013-03-14 01:02:00,
2013-03-13 18:23:00,66.0,49.0,-100.00,NE,44,5.0,8.0,54,0.00,,,0.00,309.000000,,2013-03-14 01:23:00,
2013-03-13 18:32:00,66.0,49.0,-100.00,NE,44,5.0,8.0,54,0.00,,,0.00,309.000000,,2013-03-14 01:32:00,
2013-03-13 18:42:00,66.0,49.0,-100.00,NE,44,5.0,8.0,54,0.00,,,0.00,309.000000,,2013-03-14 01:42:00,
2013-03-13 18:52:00,66.0,49.0,-100.00,NE,44,5.0,8.0,54,0.00,,,0.00,309.000000,,2013-03-14 01:52:00,
2013-03-13 19:33:00,63.0,48.0,-100.00,NE,43,4.0,6.0,57,0.00,,,0.00,82.000000,,2013-03-14 02:33:00,
2013-03-13 19:42:00,63.0,48.0,-100.00,NE,43,4.0,6.0,57,0.00,,,0.00,82.000000,,2013-03-14 02:42:00,
2013-03-13 19:52:00,63.0,48.0,-100.00,NE,43,4.0,6.0,57,0.00,,,0.00,82.000000,,2013-03-14 02:52:00,
2013-03-13 20:01:00,63.0,48.0,-100.00,NE,43,4.0,6.0,57,0.00,,,0.00,82.000000,,2013-03-14 03:01:00,
2013-03-13 20:33:00,62.0,47.0,-100.00,NE,42,3.0,6.0,59,0.00,,,0.00,2.000000,,2013-03-14 03:33:00,
2013-03-13 20:42:00,62.0,47.0,-100.00,NE,42,3.0,6.0,59,0.00,,,0.00,2.000000,,2013-03-14 03:42:00,
2013-03-13 20:52:00,62.0,47.0,-100.00,NE,42,3.0,6.0,59,0.00,,,0.00,2.000000,,2013-03-14 03:52:00,
2013-03-13 21:02:00,65.0,41.0,-100.00,NNE,21,4.0,5.0,41,0.00,,,0.00,0.000000,,2013-03-14 04:02:00,
2013-03-13 21:32:00,65.0,41.0,-100.00,NNE,21,4.0,5.0,41,0.00,,,0.00,0.000000,,2013-03-14 04:32:00,
2013-03-13 21:42:00,65.0,41.0,-100.00,NNE,21,4.0,5.0,41,0.00,,,0.00,0.000000,,2013-03-14 04:42:00,
2013-03-13 21:52:00,65.0,41.0,-100.00,NNE,21,4.0,5.0,41,0.00,,,0.00,0.000000,,2013-03-14 04:52:00,
2013-03-13 22:02:00,63.0,41.0,-100.00,North,6,3.0,6.0,45,0.00,,,0.00,0.000000,,2013-03-14 05:02:00,
2013-03-13 22:33:00,63.0,41.0,-100.00,North,6,3.0,6.0,45,0.00,,,0.00,0.000000,,2013-03-14 05:33:00,
2013-03-13 22:42:00,63.0,41.0,-100.00,North,6,3.0,6.0,45,0.00,,,0.00,0.000000,,2013-03-14 05:42:00,
2013-03-13 22:52:00,63.0,41.0,-100.00,North,6,3.0,6.0,45,0.00,,,0.00,0.000000,,2013-03-14 05:52:00,
2013-03-13 23:33:00,65.0,41.0,-100.00,North,9,4.0,4.0,41,0.00,,,0.00,0.000000,,2013-03-14 06:33:00,
2013-03-13 23:42:00,65.0,41.0,-100.00,North,9,4.0,4.0,41,0.00,,,0.00,0.000000,,2013-03-14 06:42:00,
2013-03-13 23:52:00,65.0,41.0,-100.00,North,9,4.0,4.0,41,0.00,,,0.00,0.000000,,2013-03-14 06:52:00,